Time;durP1;ratioP1;P1;durP2;ratioP2;P2;SDS_P1;SDS_P2;PMS_P1;PMS_P2;Temp;Humidity;BMP_temperature;BMP_pressure;BME280_temperature;BME280_humidity;BME280_pressure;Samples;Min_cycle;Max_cycle;Signal;HPM_P1;HPM_P2
2021/06/12 00:01:03;;;;;;;6.60;5.87;;;18.50;99.90;;;;;;5050372;28;20237;-70
2021/06/12 00:03:35;;;;;;;7.77;6.47;;;18.50;99.90;;;;;;5050202;28;20701;-70
2021/06/12 00:06:03;;;;;;;9.30;6.77;;;18.40;99.90;;;;;;5050538;28;20257;-70
2021/06/12 00:08:31;;;;;;;8.13;6.30;;;18.40;99.90;;;;;;5049780;28;20734;-70
2021/06/12 00:11:00;;;;;;;8.53;6.20;;;18.50;99.90;;;;;;5050352;28;20250;-70
2021/06/12 00:13:28;;;;;;;7.40;6.30;;;18.50;99.90;;;;;;5049650;28;20256;-70
2021/06/12 00:15:57;;;;;;;8.63;6.77;;;18.50;99.90;;;;;;5050354;28;20288;-70
2021/06/12 00:18:25;;;;;;;8.37;5.90;;;18.40;99.90;;;;;;5049777;28;20257;-70
2021/06/12 00:20:56;;;;;;;12.20;7.33;;;18.50;99.90;;;;;;5050271;28;20249;-70
2021/06/12 00:23:24;;;;;;;12.13;7.83;;;18.40;99.90;;;;;;5049366;28;20241;-70
2021/06/12 00:25:52;;;;;;;8.03;7.13;;;18.50;99.90;;;;;;5050257;28;20494;-70
2021/06/12 00:28:20;;;;;;;8.87;7.27;;;18.40;99.90;;;;;;5049311;28;20892;-70
2021/06/12 00:30:48;;;;;;;8.70;7.20;;;18.50;99.90;;;;;;5049881;28;20617;-70
2021/06/12 00:33:16;;;;;;;7.70;6.93;;;18.50;99.90;;;;;;5049657;28;20247;-70
2021/06/12 00:35:44;;;;;;;7.73;6.93;;;18.40;99.90;;;;;;5049840;28;20709;-70
2021/06/12 00:38:13;;;;;;;8.23;7.33;;;18.40;99.90;;;;;;5049506;28;20480;-70
2021/06/12 00:40:41;;;;;;;8.40;7.57;;;18.40;99.90;;;;;;5049293;28;20320;-70
2021/06/12 00:43:09;;;;;;;10.13;7.67;;;18.30;99.90;;;;;;5049826;28;20238;-70
2021/06/12 00:45:36;;;;;;;7.57;6.77;;;18.30;99.90;;;;;;5050235;28;20239;-70
2021/06/12 00:48:05;;;;;;;8.60;7.40;;;18.30;99.90;;;;;;5049302;28;20241;-70
2021/06/12 00:50:34;;;;;;;7.40;6.70;;;18.30;99.90;;;;;;5049768;28;20236;-70
2021/06/12 00:53:06;;;;;;;9.57;7.20;;;18.40;99.90;;;;;;5048764;28;20241;-70
2021/06/12 00:55:36;;;;;;;8.53;7.40;;;18.30;99.90;;;;;;5053162;28;20317;-70
2021/06/12 00:58:07;;;;;;;8.60;7.27;;;18.30;99.90;;;;;;5049080;28;20233;-70
2021/06/12 01:00:35;;;;;;;8.10;6.80;;;18.30;99.90;;;;;;5048927;28;20723;-70
2021/06/12 01:03:03;;;;;;;7.80;6.53;;;18.30;99.90;;;;;;5049078;28;20244;-70
2021/06/12 01:05:31;;;;;;;8.83;6.73;;;18.40;99.90;;;;;;5049351;28;20646;-70
2021/06/12 01:07:58;;;;;;;8.03;7.23;;;18.30;99.90;;;;;;5048883;28;20241;-70
2021/06/12 01:10:26;;;;;;;8.30;6.33;;;18.30;99.90;;;;;;5047414;28;20309;-70
2021/06/12 01:13:08;;;;;;;7.43;6.73;;;18.40;99.90;;;;;;5048671;28;20271;-70
2021/06/12 01:15:50;;;;;;;7.33;6.23;;;18.40;99.90;;;;;;5049486;28;20245;-70
2021/06/12 01:18:19;;;;;;;7.40;6.53;;;18.40;99.90;;;;;;5048579;28;20237;-70
2021/06/12 01:21:02;;;;;;;7.60;6.73;;;18.40;99.90;;;;;;5048756;28;20243;-71
2021/06/12 01:24:01;;;;;;;8.40;6.43;;;18.40;99.90;;;;;;5049133;28;20237;-70
2021/06/12 01:26:57;;;;;;;10.80;7.87;;;18.50;99.90;;;;;;5048916;28;20268;-70
2021/06/12 01:29:54;;;;;;;8.10;7.30;;;18.50;99.90;;;;;;5045752;28;20237;-70
2021/06/12 01:32:25;;;;;;;8.13;7.20;;;18.40;99.90;;;;;;5048209;28;20315;-70
2021/06/12 01:34:56;;;;;;;9.70;8.60;;;18.40;99.90;;;;;;5049176;28;20324;-70
2021/06/12 01:37:26;;;;;;;10.23;8.73;;;18.40;99.90;;;;;;5048591;28;20230;-70
2021/06/12 01:39:54;;;;;;;10.07;9.07;;;18.40;99.90;;;;;;5048830;28;20248;-70
2021/06/12 01:42:23;;;;;;;10.83;9.77;;;18.30;99.90;;;;;;5047927;28;20291;-70
2021/06/12 01:44:51;;;;;;;9.80;8.80;;;18.30;99.90;;;;;;5048535;28;20241;-70
2021/06/12 01:47:20;;;;;;;10.20;9.13;;;18.30;99.90;;;;;;5048445;28;20663;-70
2021/06/12 01:49:51;;;;;;;10.43;9.10;;;18.30;99.90;;;;;;5048463;28;20242;-70
2021/06/12 01:52:19;;;;;;;10.30;9.13;;;18.30;99.90;;;;;;5047197;28;20240;-70
2021/06/12 01:54:49;;;;;;;10.77;9.60;;;18.30;99.90;;;;;;5047317;28;20815;-70
2021/06/12 01:57:19;;;;;;;11.63;9.70;;;18.30;99.90;;;;;;5048213;28;20771;-70
2021/06/12 01:59:48;;;;;;;11.70;9.80;;;18.20;99.90;;;;;;5029841;28;20747;-70
2021/06/12 02:02:17;;;;;;;10.67;9.57;;;18.20;99.90;;;;;;5053559;28;20233;-71
2021/06/12 02:04:45;;;;;;;11.07;9.43;;;18.30;99.90;;;;;;5035461;28;20697;-70
2021/06/12 02:07:14;;;;;;;12.53;10.17;;;18.30;99.90;;;;;;5048144;28;20730;-70
2021/06/12 02:09:47;;;;;;;11.30;10.20;;;18.30;99.90;;;;;;5047669;28;20241;-70
2021/06/12 02:12:15;;;;;;;12.83;11.20;;;18.30;99.90;;;;;;5047840;28;20630;-70
2021/06/12 02:14:43;;;;;;;11.83;10.63;;;18.30;99.90;;;;;;5047674;28;20236;-70
2021/06/12 02:17:12;;;;;;;12.27;10.57;;;18.30;99.90;;;;;;5048646;28;20543;-70
2021/06/12 02:19:41;;;;;;;12.60;11.30;;;18.30;99.90;;;;;;5047863;28;20693;-70
2021/06/12 02:22:09;;;;;;;13.30;11.37;;;18.30;99.90;;;;;;5047413;28;20248;-70
2021/06/12 02:24:38;;;;;;;14.27;12.67;;;18.30;99.90;;;;;;5047641;28;20229;-70
2021/06/12 02:27:08;;;;;;;13.07;11.00;;;18.30;99.90;;;;;;5047857;28;20237;-70
2021/06/12 02:29:38;;;;;;;14.43;11.87;;;18.20;99.90;;;;;;5047379;28;20257;-70
2021/06/12 02:32:08;;;;;;;15.60;12.77;;;18.20;99.90;;;;;;5047698;28;20332;-70
2021/06/12 02:34:37;;;;;;;12.93;11.53;;;18.20;99.90;;;;;;5047210;28;20612;-70
2021/06/12 02:37:05;;;;;;;12.53;11.23;;;18.20;99.90;;;;;;5047647;28;20230;-70
2021/06/12 02:39:33;;;;;;;11.97;10.70;;;18.30;99.90;;;;;;5047600;28;20296;-70
2021/06/12 02:42:03;;;;;;;16.43;13.30;;;18.30;99.90;;;;;;5047449;28;20244;-70
2021/06/12 02:44:31;;;;;;;13.47;12.03;;;18.40;99.90;;;;;;5047518;28;20295;-70
2021/06/12 02:47:02;;;;;;;13.50;12.13;;;18.30;99.90;;;;;;5047354;28;20564;-70
2021/06/12 02:49:34;;;;;;;14.53;12.50;;;18.20;99.90;;;;;;5047045;28;20236;-70
2021/06/12 02:52:06;;;;;;;14.53;13.03;;;18.10;99.90;;;;;;5046799;28;20275;-70
2021/06/12 02:54:36;;;;;;;18.10;14.53;;;18.10;99.90;;;;;;5047004;28;20235;-70
2021/06/12 02:57:06;;;;;;;18.97;16.03;;;18.00;99.90;;;;;;5047571;28;20582;-70
2021/06/12 02:59:35;;;;;;;15.83;13.40;;;17.90;99.90;;;;;;5061850;28;20301;-70
2021/06/12 03:02:04;;;;;;;15.73;13.07;;;17.70;99.90;;;;;;5047209;28;20681;-70
2021/06/12 03:04:35;;;;;;;16.00;13.67;;;17.80;99.90;;;;;;5046908;28;20777;-70
2021/06/12 03:07:04;;;;;;;16.60;13.97;;;17.80;99.90;;;;;;5047231;28;20268;-70
2021/06/12 03:09:33;;;;;;;17.80;14.37;;;17.80;99.90;;;;;;5046786;28;20232;-70
2021/06/12 03:12:02;;;;;;;16.87;13.47;;;17.80;99.90;;;;;;5046379;28;20716;-70
2021/06/12 03:14:33;;;;;;;13.80;11.33;;;17.80;99.90;;;;;;5047089;28;20235;-70
2021/06/12 03:17:01;;;;;;;12.60;10.77;;;17.80;99.90;;;;;;5047381;28;20236;-70
2021/06/12 03:19:30;;;;;;;14.40;12.07;;;17.80;99.90;;;;;;5046588;28;20239;-70
2021/06/12 03:21:58;;;;;;;16.23;12.47;;;17.80;99.90;;;;;;5046613;28;20715;-70
2021/06/12 03:24:28;;;;;;;12.70;10.90;;;17.80;99.90;;;;;;5046066;28;20251;-70
2021/06/12 03:26:59;;;;;;;12.27;10.97;;;17.80;99.90;;;;;;5046795;28;20240;-70
2021/06/12 03:29:28;;;;;;;12.90;10.63;;;17.80;99.90;;;;;;5046422;28;20273;-70
2021/06/12 03:31:58;;;;;;;12.07;10.73;;;17.80;99.90;;;;;;5046719;28;20236;-70
2021/06/12 03:34:26;;;;;;;12.43;10.73;;;17.80;99.90;;;;;;5046384;28;20319;-70
2021/06/12 03:36:57;;;;;;;12.13;9.50;;;17.80;99.90;;;;;;5046755;28;20732;-70
2021/06/12 03:39:24;;;;;;;12.90;9.40;;;17.80;99.90;;;;;;5046903;28;20294;-70
2021/06/12 03:41:53;;;;;;;11.90;9.20;;;17.80;99.90;;;;;;5046768;28;20294;-70
2021/06/12 03:44:22;;;;;;;11.20;9.30;;;17.70;99.90;;;;;;5046802;28;20254;-70
2021/06/12 03:46:51;;;;;;;10.87;9.60;;;17.80;99.90;;;;;;5047127;28;20251;-70
2021/06/12 03:49:20;;;;;;;13.50;9.20;;;17.80;99.90;;;;;;5046777;28;20232;-70
2021/06/12 03:51:48;;;;;;;11.97;9.47;;;17.80;99.90;;;;;;5045700;28;20245;-70
2021/06/12 03:54:16;;;;;;;12.43;9.77;;;17.80;99.90;;;;;;5046657;28;20330;-70
2021/06/12 03:56:44;;;;;;;10.23;8.57;;;17.80;99.90;;;;;;5046714;28;20240;-70
2021/06/12 03:59:12;;;;;;;11.30;8.70;;;17.80;99.90;;;;;;5046590;28;20246;-70
2021/06/12 04:01:42;;;;;;;11.63;9.70;;;17.80;99.90;;;;;;5047305;28;20238;-70
2021/06/12 04:04:09;;;;;;;10.80;9.20;;;17.70;99.90;;;;;;5046770;28;20241;-70
2021/06/12 04:06:38;;;;;;;11.67;9.13;;;17.80;99.90;;;;;;5047084;28;20270;-70
2021/06/12 04:09:06;;;;;;;12.27;9.30;;;17.80;99.90;;;;;;5046356;28;20237;-70
2021/06/12 04:11:33;;;;;;;10.90;9.33;;;17.80;99.90;;;;;;5046382;28;20224;-70
2021/06/12 04:14:03;;;;;;;12.43;10.47;;;17.90;99.90;;;;;;5046365;28;20506;-70
2021/06/12 04:16:30;;;;;;;12.20;9.90;;;17.90;99.90;;;;;;5049652;28;20232;-70
2021/06/12 04:19:00;;;;;;;10.33;9.10;;;17.90;99.90;;;;;;5049871;28;20750;-70
2021/06/12 04:21:28;;;;;;;11.63;9.93;;;17.90;99.90;;;;;;5049740;28;20228;-70
2021/06/12 04:23:57;;;;;;;13.27;11.67;;;17.90;99.90;;;;;;5049950;28;20269;-70
2021/06/12 04:26:24;;;;;;;11.80;9.90;;;17.90;99.90;;;;;;5050282;28;20236;-70
2021/06/12 04:28:52;;;;;;;12.97;10.27;;;17.90;99.90;;;;;;5049564;28;20249;-70
2021/06/12 04:31:20;;;;;;;11.80;10.27;;;17.90;99.90;;;;;;5049908;28;20267;-70
2021/06/12 04:33:48;;;;;;;12.20;10.90;;;18.00;99.90;;;;;;5045270;28;20689;-70
2021/06/12 04:36:15;;;;;;;14.33;11.50;;;18.00;99.90;;;;;;5042483;28;20294;-70
2021/06/12 04:38:43;;;;;;;11.90;10.70;;;18.00;99.90;;;;;;5049007;28;20245;-70
2021/06/12 04:41:12;;;;;;;13.43;11.43;;;18.00;99.90;;;;;;5049888;28;20233;-70
2021/06/12 04:43:40;;;;;;;14.73;12.63;;;18.00;99.90;;;;;;5047355;28;20698;-70
2021/06/12 04:46:08;;;;;;;18.73;14.90;;;18.00;99.90;;;;;;5049627;28;20233;-70
2021/06/12 04:48:35;;;;;;;18.73;15.90;;;18.00;99.90;;;;;;5048607;28;20233;-70
2021/06/12 04:51:03;;;;;;;18.30;16.37;;;18.00;99.90;;;;;;5049490;28;20235;-70
2021/06/12 04:53:31;;;;;;;23.53;20.17;;;18.00;99.90;;;;;;5048275;28;20624;-70
2021/06/12 04:55:58;;;;;;;22.50;18.63;;;18.00;99.90;;;;;;5048947;28;20240;-70
2021/06/12 04:58:28;;;;;;;25.30;19.83;;;18.00;99.90;;;;;;5048084;28;20232;-70
2021/06/12 05:00:55;;;;;;;22.63;18.73;;;18.00;99.90;;;;;;5048858;28;20261;-70
2021/06/12 05:03:23;;;;;;;23.63;19.30;;;18.00;99.90;;;;;;5049151;28;20324;-70
2021/06/12 05:05:51;;;;;;;23.17;19.13;;;18.00;99.90;;;;;;5049110;28;20720;-70
2021/06/12 05:08:19;;;;;;;22.57;19.63;;;18.10;99.90;;;;;;5048327;28;20766;-70
2021/06/12 05:10:46;;;;;;;23.47;20.40;;;18.10;99.90;;;;;;5048967;28;20240;-70
2021/06/12 05:13:14;;;;;;;22.87;18.93;;;18.10;99.90;;;;;;5048970;28;20320;-70
2021/06/12 05:15:43;;;;;;;25.43;21.13;;;18.30;99.90;;;;;;5049066;28;20240;-70
2021/06/12 05:18:13;;;;;;;27.07;21.43;;;18.30;99.90;;;;;;5049215;28;20238;-70
2021/06/12 05:20:40;;;;;;;28.67;22.27;;;18.30;99.90;;;;;;5048978;28;20237;-70
2021/06/12 05:23:08;;;;;;;24.00;20.93;;;18.40;99.90;;;;;;5048638;28;20366;-70
2021/06/12 05:25:36;;;;;;;25.23;21.60;;;18.40;99.90;;;;;;5048947;28;20241;-70
2021/06/12 05:28:04;;;;;;;28.40;23.33;;;18.50;99.90;;;;;;5047243;28;20242;-70
2021/06/12 05:30:32;;;;;;;24.73;22.03;;;18.50;99.90;;;;;;5048536;28;20236;-70
2021/06/12 05:33:01;;;;;;;25.93;22.60;;;18.50;99.90;;;;;;5046018;28;20238;-70
2021/06/12 05:35:29;;;;;;;27.27;23.27;;;18.50;99.90;;;;;;5045876;28;20234;-70
2021/06/12 05:37:56;;;;;;;28.03;22.10;;;18.60;99.90;;;;;;5046663;28;20268;-70
2021/06/12 05:40:24;;;;;;;27.70;22.97;;;18.60;99.90;;;;;;5047063;28;20237;-70
2021/06/12 05:42:52;;;;;;;27.40;21.27;;;18.70;99.90;;;;;;5049263;28;20709;-70
2021/06/12 05:45:20;;;;;;;27.93;23.37;;;18.70;99.90;;;;;;5047162;28;20321;-70
2021/06/12 05:47:48;;;;;;;24.90;22.10;;;18.70;99.90;;;;;;5047118;28;20239;-70
2021/06/12 05:50:21;;;;;;;26.00;22.37;;;18.80;99.90;;;;;;5046685;28;20587;-70
2021/06/12 05:52:48;;;;;;;26.27;21.87;;;18.70;99.90;;;;;;5046114;28;20242;-70
2021/06/12 05:55:16;;;;;;;26.97;22.43;;;18.80;99.90;;;;;;5046524;28;20540;-70
2021/06/12 05:57:44;;;;;;;24.57;21.53;;;18.80;99.90;;;;;;5046150;28;20239;-70
2021/06/12 06:00:13;;;;;;;25.37;22.60;;;18.80;99.90;;;;;;5046384;28;20241;-70
2021/06/12 06:02:44;;;;;;;26.50;22.47;;;18.80;99.90;;;;;;5043121;28;20274;-71
2021/06/12 06:05:13;;;;;;;27.33;22.80;;;18.80;99.90;;;;;;5047547;28;20239;-71
2021/06/12 06:07:42;;;;;;;26.50;23.70;;;18.80;99.90;;;;;;5046545;28;20266;-70
2021/06/12 06:10:10;;;;;;;25.07;21.37;;;18.80;99.90;;;;;;5047251;28;20332;-71
2021/06/12 06:12:38;;;;;;;24.90;22.20;;;18.80;99.90;;;;;;5046336;28;20317;-70
2021/06/12 06:15:09;;;;;;;26.97;21.93;;;18.80;99.90;;;;;;5046882;28;20240;-70
2021/06/12 06:17:36;;;;;;;22.70;20.27;;;18.80;99.90;;;;;;5046677;28;20242;-71
2021/06/12 06:20:05;;;;;;;24.23;20.67;;;19.00;99.90;;;;;;5047632;28;20241;-70
2021/06/12 06:22:33;;;;;;;24.70;22.00;;;19.00;99.90;;;;;;5046927;28;20266;-70
2021/06/12 06:25:03;;;;;;;24.87;21.33;;;18.90;99.90;;;;;;5047694;28;20329;-70
2021/06/12 06:27:31;;;;;;;24.67;21.23;;;18.80;99.90;;;;;;5047344;28;20264;-70
2021/06/12 06:29:59;;;;;;;23.20;20.70;;;18.90;99.90;;;;;;5046974;28;20338;-70
2021/06/12 06:32:26;;;;;;;24.40;21.03;;;18.90;99.90;;;;;;5046236;28;20239;-71
2021/06/12 06:34:55;;;;;;;22.37;19.93;;;19.00;99.90;;;;;;5047138;28;20242;-70
2021/06/12 06:37:24;;;;;;;22.77;19.80;;;19.10;99.90;;;;;;5045264;28;20692;-70
2021/06/12 06:39:51;;;;;;;24.20;20.60;;;19.20;99.90;;;;;;5047649;28;20839;-70
2021/06/12 06:42:21;;;;;;;25.30;22.43;;;19.10;99.90;;;;;;5046144;28;20242;-70
2021/06/12 06:44:48;;;;;;;27.73;23.03;;;19.10;99.90;;;;;;5038806;28;20324;-70
2021/06/12 06:47:16;;;;;;;25.90;23.13;;;19.10;99.90;;;;;;5046192;28;20317;-70
2021/06/12 06:49:44;;;;;;;28.13;23.60;;;19.00;99.90;;;;;;5047000;28;20242;-71
2021/06/12 06:52:12;;;;;;;26.07;23.27;;;19.00;99.90;;;;;;5048165;28;20296;-71
2021/06/12 06:54:40;;;;;;;27.50;23.17;;;18.90;99.90;;;;;;5053676;28;20626;-70
2021/06/12 06:57:08;;;;;;;25.40;22.57;;;18.80;99.90;;;;;;5048431;28;20722;-70
2021/06/12 06:59:37;;;;;;;27.17;24.27;;;18.70;99.90;;;;;;5045482;28;20597;-70
2021/06/12 07:02:05;;;;;;;27.73;23.57;;;18.60;99.90;;;;;;5046223;28;20245;-71
2021/06/12 07:04:33;;;;;;;26.07;22.00;;;18.50;99.90;;;;;;5044584;28;20705;-71
2021/06/12 07:07:03;;;;;;;29.50;24.00;;;18.50;99.90;;;;;;5047243;28;20265;-71
2021/06/12 07:09:31;;;;;;;25.30;21.87;;;18.30;99.90;;;;;;5038700;28;20234;-71
2021/06/12 07:12:01;;;;;;;21.50;18.23;;;18.20;99.90;;;;;;5043282;28;20253;-70
2021/06/12 07:14:30;;;;;;;20.83;17.77;;;18.10;99.90;;;;;;5038638;28;20238;-71
2021/06/12 07:16:59;;;;;;;19.23;17.07;;;18.10;99.90;;;;;;5047159;28;20270;-70
2021/06/12 07:19:27;;;;;;;20.60;16.73;;;18.10;99.90;;;;;;5040342;28;20242;-70
2021/06/12 07:21:55;;;;;;;18.13;15.93;;;18.00;99.90;;;;;;5046294;28;20245;-70
2021/06/12 07:24:22;;;;;;;20.00;16.63;;;18.10;99.90;;;;;;5047366;28;20316;-71
2021/06/12 07:26:50;;;;;;;19.47;17.40;;;18.20;99.90;;;;;;5046891;28;20292;-70
2021/06/12 07:29:18;;;;;;;18.97;15.83;;;18.20;99.90;;;;;;5046496;28;20656;-71
2021/06/12 07:31:46;;;;;;;17.33;15.57;;;18.20;99.90;;;;;;5045025;28;20251;-71
2021/06/12 07:34:15;;;;;;;17.23;15.37;;;18.30;99.90;;;;;;5049436;28;20238;-71
2021/06/12 07:36:43;;;;;;;18.27;15.60;;;18.20;99.90;;;;;;5043997;28;20714;-72
2021/06/12 07:39:14;;;;;;;20.43;17.23;;;18.30;99.90;;;;;;5048900;28;20237;-71
2021/06/12 07:41:42;;;;;;;17.67;15.87;;;18.30;99.90;;;;;;5041875;28;20234;-71
2021/06/12 07:44:10;;;;;;;18.50;16.57;;;18.10;99.90;;;;;;5049506;28;20324;-72
2021/06/12 07:46:38;;;;;;;24.30;18.47;;;18.00;99.90;;;;;;5043445;28;20233;-71
2021/06/12 07:49:09;;;;;;;18.43;16.10;;;17.90;99.90;;;;;;5037637;28;20604;-71
2021/06/12 07:51:39;;;;;;;17.57;15.10;;;17.80;99.90;;;;;;5041688;28;20291;-71
2021/06/12 07:54:07;;;;;;;18.40;14.47;;;17.80;99.90;;;;;;5048838;28;20788;-72
2021/06/12 07:56:35;;;;;;;16.30;14.07;;;17.80;99.90;;;;;;5047918;28;20240;-72
2021/06/12 07:59:03;;;;;;;15.70;13.53;;;17.70;99.90;;;;;;5040422;28;20593;-72
2021/06/12 08:01:33;;;;;;;17.27;12.90;;;17.70;99.90;;;;;;5047889;28;20708;-71
2021/06/12 08:04:01;;;;;;;15.30;12.97;;;17.70;99.90;;;;;;5040434;28;20239;-71
2021/06/12 08:06:29;;;;;;;15.17;13.17;;;17.80;99.90;;;;;;5036518;28;20534;-71
2021/06/12 08:08:58;;;;;;;19.63;13.53;;;17.80;99.90;;;;;;5035360;28;20256;-71
2021/06/12 08:11:26;;;;;;;18.27;13.37;;;17.90;99.90;;;;;;5040561;28;20241;-71
2021/06/12 08:13:54;;;;;;;14.27;12.87;;;18.10;99.90;;;;;;5041370;28;20706;-71
2021/06/12 08:16:22;;;;;;;14.10;12.53;;;18.10;99.90;;;;;;5048368;28;20723;-72
2021/06/12 08:18:50;;;;;;;14.00;11.70;;;18.30;99.90;;;;;;5053432;28;20260;-72
2021/06/12 08:21:20;;;;;;;15.47;12.23;;;18.40;99.90;;;;;;5040209;28;20253;-72
2021/06/12 08:23:48;;;;;;;12.30;10.90;;;18.50;99.90;;;;;;5041916;28;20321;-72
2021/06/12 08:26:17;;;;;;;14.73;10.67;;;18.60;99.90;;;;;;5047561;28;20697;-72
2021/06/12 08:28:46;;;;;;;11.93;9.93;;;18.70;99.90;;;;;;5054952;28;20283;-71
2021/06/12 08:31:14;;;;;;;13.50;9.83;;;18.80;99.90;;;;;;5046295;28;20261;-72
2021/06/12 08:33:42;;;;;;;11.87;9.83;;;18.90;99.90;;;;;;5045915;28;20241;-72
2021/06/12 08:36:09;;;;;;;11.37;9.10;;;18.90;99.90;;;;;;5049616;28;20260;-71
2021/06/12 08:38:37;;;;;;;12.17;8.93;;;19.10;99.90;;;;;;5054362;28;20245;-71
2021/06/12 08:41:05;;;;;;;11.90;8.70;;;19.20;99.90;;;;;;5049691;28;20230;-72
2021/06/12 08:43:35;;;;;;;12.00;8.80;;;19.30;99.90;;;;;;5070369;28;20251;-71
2021/06/12 08:46:12;;;;;;;10.10;7.27;;;19.20;99.90;;;;;;5050143;28;20242;-71
2021/06/12 08:48:41;;;;;;;11.23;6.40;;;19.20;99.90;;;;;;5055584;28;20250;-71
2021/06/12 08:51:09;;;;;;;11.73;7.07;;;19.30;99.90;;;;;;5049637;28;20278;-71
2021/06/12 08:53:36;;;;;;;9.57;5.40;;;19.40;99.90;;;;;;5055069;28;20234;-71
2021/06/12 08:56:05;;;;;;;17.50;7.43;;;19.40;99.90;;;;;;5049661;28;20241;-71
2021/06/12 08:58:34;;;;;;;6.57;3.80;;;19.40;99.90;;;;;;5054887;28;20276;-71
2021/06/12 09:01:03;;;;;;;5.73;3.60;;;19.40;99.90;;;;;;5049150;28;20249;-71
2021/06/12 09:03:32;;;;;;;5.23;3.47;;;19.60;99.90;;;;;;5054469;28;20241;-71
2021/06/12 09:06:01;;;;;;;6.37;3.20;;;19.50;99.90;;;;;;5049119;28;20231;-71
2021/06/12 09:08:30;;;;;;;7.33;3.50;;;19.60;99.90;;;;;;5049543;28;20266;-71
2021/06/12 09:11:01;;;;;;;5.40;3.23;;;19.80;99.90;;;;;;5048625;28;20246;-71
2021/06/12 09:13:39;;;;;;;6.03;3.10;;;19.80;99.90;;;;;;5049141;28;20638;-71
2021/06/12 09:16:09;;;;;;;5.93;3.13;;;20.00;99.90;;;;;;5049532;28;20292;-71
2021/06/12 09:18:39;;;;;;;7.90;3.10;;;20.30;99.90;;;;;;5048865;28;20334;-71
2021/06/12 09:21:08;;;;;;;4.77;2.60;;;20.30;99.90;;;;;;5039051;28;20232;-70
2021/06/12 09:23:41;;;;;;;6.03;2.90;;;20.40;99.90;;;;;;5044605;28;20293;-70
2021/06/12 09:26:09;;;;;;;9.03;2.97;;;20.60;99.90;;;;;;5049445;28;20250;-71
2021/06/12 09:28:52;;;;;;;5.77;3.07;;;20.90;99.90;;;;;;5055727;28;20758;-71
2021/06/12 09:31:25;;;;;;;5.60;2.70;;;21.10;99.90;;;;;;5048706;28;20242;-71
2021/06/12 09:33:56;;;;;;;7.37;2.83;;;21.30;99.90;;;;;;5041083;28;20336;-71
2021/06/12 09:36:42;;;;;;;6.30;2.60;;;21.70;99.90;;;;;;5064201;28;20326;-71
2021/06/12 09:39:12;;;;;;;5.20;2.80;;;21.20;99.90;;;;;;5049702;28;20227;-71
2021/06/12 09:41:45;;;;;;;7.03;2.70;;;20.70;99.90;;;;;;5045606;28;20873;-71
2021/06/12 09:44:30;;;;;;;8.73;3.17;;;20.30;99.90;;;;;;5046588;28;20703;-71
2021/06/12 09:46:59;;;;;;;8.30;2.70;;;20.10;99.90;;;;;;5044900;28;20246;-71
2021/06/12 09:49:32;;;;;;;9.37;2.60;;;20.30;99.90;;;;;;5045381;28;20762;-71
2021/06/12 09:52:05;;;;;;;7.00;2.03;;;20.50;99.90;;;;;;5045290;28;20299;-70
2021/06/12 09:54:42;;;;;;;8.10;2.43;;;21.00;99.90;;;;;;5044104;28;20235;-71
2021/06/12 09:57:14;;;;;;;4.37;1.93;;;20.80;99.90;;;;;;5045537;28;20249;-71
2021/06/12 09:59:46;;;;;;;3.73;1.83;;;21.00;99.90;;;;;;5045054;28;20293;-71
2021/06/12 10:02:34;;;;;;;6.27;1.90;;;21.40;99.90;;;;;;5043588;28;20239;-71
2021/06/12 10:05:03;;;;;;;6.40;1.90;;;21.20;99.90;;;;;;5044345;28;20549;-71
2021/06/12 10:07:31;;;;;;;6.00;2.07;;;20.90;99.90;;;;;;5044588;28;20318;-71
2021/06/12 10:10:09;;;;;;;4.30;1.93;;;20.90;99.90;;;;;;5048239;28;20238;-71
2021/06/12 10:12:37;;;;;;;3.97;1.90;;;20.90;99.90;;;;;;5044563;28;20769;-71
2021/06/12 10:15:09;;;;;;;7.20;2.20;;;20.90;99.90;;;;;;5044545;28;20611;-71
2021/06/12 10:17:42;;;;;;;5.53;1.90;;;20.80;99.90;;;;;;5045211;28;20704;-71
2021/06/12 10:20:11;;;;;;;5.10;1.83;;;20.50;99.90;;;;;;5037663;28;20239;-71
2021/06/12 10:22:42;;;;;;;3.57;1.90;;;20.40;99.90;;;;;;5045031;28;20249;-71
2021/06/12 10:25:12;;;;;;;6.27;2.30;;;20.60;99.90;;;;;;5037250;28;20246;-71
2021/06/12 10:27:40;;;;;;;4.20;1.90;;;20.70;99.90;;;;;;5045009;28;20259;-71
2021/06/12 10:30:13;;;;;;;4.90;1.80;;;20.70;99.90;;;;;;5044345;28;20644;-70
2021/06/12 10:32:44;;;;;;;5.20;1.80;;;20.90;99.90;;;;;;5044604;28;20780;-70
2021/06/12 10:35:17;;;;;;;3.63;1.60;;;20.80;99.90;;;;;;5036760;28;20239;-70
2021/06/12 10:37:59;;;;;;;4.40;1.83;;;20.70;99.90;;;;;;5044399;28;20231;-70
2021/06/12 10:40:38;;;;;;;4.97;2.03;;;20.40;99.90;;;;;;5044099;28;20258;-70
2021/06/12 10:43:15;;;;;;;3.83;2.00;;;20.30;99.90;;;;;;5045685;28;20235;-70
2021/06/12 10:45:46;;;;;;;4.03;1.90;;;20.20;99.90;;;;;;5045446;28;20241;-70
2021/06/12 10:48:43;;;;;;;2.40;1.80;;;20.90;99.90;;;;;;5043555;28;20247;-70
2021/06/12 10:51:14;;;;;;;4.10;1.70;;;21.00;99.90;;;;;;5044171;28;20701;-70
2021/06/12 10:53:48;;;;;;;4.10;1.90;;;20.70;99.90;;;;;;5039993;28;20705;-70
2021/06/12 10:56:32;;;;;;;3.80;1.70;;;20.50;99.90;;;;;;5041309;28;20239;-71
2021/06/12 10:59:00;;;;;;;4.13;1.90;;;20.50;99.90;;;;;;5045246;28;20313;-70
2021/06/12 11:01:30;;;;;;;4.10;1.87;;;20.80;99.90;;;;;;5046177;28;20262;-70
2021/06/12 11:04:05;;;;;;;3.43;1.50;;;20.70;99.90;;;;;;5046716;28;20242;-70
2021/06/12 11:06:38;;;;;;;3.37;1.83;;;20.50;99.90;;;;;;5068124;28;20603;-70
2021/06/12 11:09:32;;;;;;;5.53;2.07;;;20.50;99.90;;;;;;5043677;28;20289;-70
2021/06/12 11:12:01;;;;;;;7.43;2.20;;;20.10;99.90;;;;;;5044333;28;20764;-70
2021/06/12 11:14:35;;;;;;;4.37;2.13;;;20.20;99.90;;;;;;5043793;28;20706;-70
2021/06/12 11:17:18;;;;;;;4.93;2.10;;;20.10;99.90;;;;;;5046024;28;20230;-70
2021/06/12 11:19:48;;;;;;;4.17;2.10;;;20.00;99.90;;;;;;5044100;28;20689;-70
2021/06/12 11:22:30;;;;;;;5.70;2.20;;;19.90;99.90;;;;;;5045312;28;20752;-70
2021/06/12 11:25:00;;;;;;;5.00;2.10;;;19.80;99.90;;;;;;5046195;28;20646;-70
2021/06/12 11:27:30;;;;;;;4.90;1.70;;;19.70;99.90;;;;;;5050240;28;20245;-70
2021/06/12 11:30:18;;;;;;;6.00;2.10;;;19.60;99.90;;;;;;5049818;28;20646;-70
2021/06/12 11:33:12;;;;;;;3.70;1.77;;;19.80;99.90;;;;;;5046435;28;20239;-70
2021/06/12 11:35:43;;;;;;;4.77;2.00;;;20.00;99.90;;;;;;5049639;28;20242;-70
2021/06/12 11:38:13;;;;;;;6.37;2.17;;;20.10;99.90;;;;;;5045721;28;20269;-69
2021/06/12 11:40:50;;;;;;;4.30;2.00;;;20.20;99.90;;;;;;5050450;28;20235;-70
2021/06/12 11:43:36;;;;;;;6.20;2.20;;;20.00;99.90;;;;;;5048241;28;20239;-70
2021/06/12 11:46:06;;;;;;;5.40;1.90;;;20.00;99.90;;;;;;5041176;28;20267;-70
2021/06/12 11:48:41;;;;;;;5.37;2.10;;;20.20;99.90;;;;;;5037094;28;20610;-70
2021/06/12 11:51:14;;;;;;;4.93;1.93;;;20.40;99.90;;;;;;5035881;28;20245;-70
2021/06/12 11:53:43;;;;;;;6.23;2.33;;;20.90;99.90;;;;;;5037132;28;20266;-70
2021/06/12 11:56:11;;;;;;;6.93;2.10;;;20.60;99.90;;;;;;5035250;28;20242;-70
2021/06/12 11:58:54;;;;;;;4.03;2.00;;;20.40;99.90;;;;;;5034727;28;20250;-70
2021/06/12 12:01:38;;;;;;;5.70;2.00;;;20.30;99.90;;;;;;5036382;28;20329;-70
2021/06/12 12:04:09;;;;;;;4.50;2.10;;;20.00;99.90;;;;;;5036722;28;20702;-70
2021/06/12 12:06:37;;;;;;;3.43;1.63;;;19.90;99.90;;;;;;5037563;28;20239;-70
2021/06/12 12:09:06;;;;;;;3.73;1.73;;;19.80;99.90;;;;;;5036928;28;20253;-70
2021/06/12 12:11:34;;;;;;;8.57;2.10;;;19.70;99.90;;;;;;5036587;28;20682;-70
2021/06/12 12:14:04;;;;;;;7.00;1.70;;;19.70;99.90;;;;;;5036083;28;20582;-70
2021/06/12 12:16:36;;;;;;;4.93;1.97;;;20.00;99.90;;;;;;5038096;28;20226;-70
2021/06/12 12:19:05;;;;;;;3.47;1.70;;;20.20;99.90;;;;;;5038910;28;20556;-70
2021/06/12 12:21:36;;;;;;;4.53;1.70;;;20.20;99.90;;;;;;5038362;28;20714;-70
2021/06/12 12:24:07;;;;;;;2.40;1.60;;;20.20;99.90;;;;;;5034785;28;20660;-70
2021/06/12 12:26:36;;;;;;;9.47;3.00;;;20.00;99.90;;;;;;5037736;28;20246;-70
2021/06/12 12:29:07;;;;;;;4.53;2.00;;;19.80;99.90;;;;;;5038666;28;20242;-70
2021/06/12 12:31:41;;;;;;;6.27;1.80;;;19.80;99.90;;;;;;5039389;28;20773;-70
2021/06/12 12:34:10;;;;;;;2.80;1.60;;;20.00;99.90;;;;;;5035125;28;20692;-70
2021/06/12 12:36:46;;;;;;;5.30;2.13;;;19.90;99.90;;;;;;5036819;28;20321;-70
2021/06/12 12:39:16;;;;;;;3.17;1.60;;;19.60;99.90;;;;;;5038074;28;20247;-70
2021/06/12 12:41:52;;;;;;;5.43;1.80;;;19.50;99.90;;;;;;5038154;28;21331;-70
2021/06/12 12:44:21;;;;;;;5.33;1.63;;;19.40;99.90;;;;;;5035500;28;20325;-70
2021/06/12 12:46:50;;;;;;;3.97;1.70;;;19.40;99.90;;;;;;5037167;28;20308;-70
2021/06/12 12:49:21;;;;;;;4.70;1.73;;;19.40;99.90;;;;;;5038261;28;20249;-70
2021/06/12 12:51:56;;;;;;;5.93;1.70;;;19.50;99.90;;;;;;5038178;28;20247;-70